createdAt,value
2019-02-11T00:00:34.122Z,995.91
2019-02-11T00:01:34.114Z,995.93
2019-02-11T00:02:34.146Z,996.00
2019-02-11T00:03:34.090Z,996.04
2019-02-11T00:04:34.082Z,996.07
2019-02-11T00:05:34.069Z,996.10
2019-02-11T00:06:34.058Z,996.09
2019-02-11T00:07:34.092Z,996.09
2019-02-11T00:08:34.057Z,996.11
2019-02-11T00:09:34.029Z,996.12
2019-02-11T00:10:34.016Z,996.24
2019-02-11T00:11:34.007Z,996.25
2019-02-11T00:12:34.054Z,996.28
2019-02-11T00:13:33.985Z,996.34
2019-02-11T00:14:34.011Z,996.32
2019-02-11T00:15:33.964Z,996.40
2019-02-11T00:16:33.954Z,996.41
2019-02-11T00:17:33.986Z,996.45
2019-02-11T00:18:33.930Z,996.51
2019-02-11T00:19:33.923Z,996.51
2019-02-11T00:20:33.916Z,996.50
2019-02-11T00:21:33.912Z,996.54
2019-02-11T00:22:33.932Z,996.56
2019-02-11T00:23:33.878Z,996.62
2019-02-11T00:24:33.870Z,996.62
2019-02-11T00:25:33.859Z,996.67
2019-02-11T00:26:33.849Z,996.72
2019-02-11T00:27:33.928Z,996.81
2019-02-11T00:28:33.847Z,996.87
2019-02-11T00:29:33.814Z,996.83
2019-02-11T00:30:34.340Z,996.83
2019-02-11T00:31:33.795Z,996.84
2019-02-11T00:32:33.828Z,996.94
2019-02-11T00:33:33.775Z,996.92
2019-02-11T00:34:33.764Z,996.98
2019-02-11T00:35:33.757Z,996.96
2019-02-11T00:36:33.744Z,997.06
2019-02-11T00:37:33.773Z,997.06
2019-02-11T00:38:33.721Z,997.09
2019-02-11T00:39:33.711Z,997.15
2019-02-11T00:40:33.702Z,997.21
2019-02-11T00:41:33.688Z,997.18
2019-02-11T00:42:33.725Z,997.21
2019-02-11T00:43:33.666Z,997.24
2019-02-11T00:44:33.665Z,997.27
2019-02-11T00:45:33.651Z,997.28
2019-02-11T00:46:33.635Z,997.28
2019-02-11T00:47:33.669Z,997.35
2019-02-11T00:48:33.621Z,997.37
2019-02-11T00:49:33.606Z,997.37
2019-02-11T00:50:33.592Z,997.43
2019-02-11T00:51:33.579Z,997.39
2019-02-11T00:52:33.625Z,997.41
2019-02-11T00:53:33.564Z,997.48
2019-02-11T00:54:33.549Z,997.54
2019-02-11T00:55:33.538Z,997.54
2019-02-11T00:56:33.531Z,997.59
2019-02-11T00:57:33.561Z,997.59
2019-02-11T00:58:33.511Z,997.66
2019-02-11T00:59:33.510Z,997.64
2019-02-11T01:00:33.485Z,997.67
2019-02-11T01:01:33.475Z,997.79
2019-02-11T01:02:33.507Z,997.77
2019-02-11T01:03:33.455Z,997.81
2019-02-11T01:04:33.447Z,997.79
2019-02-11T01:05:33.446Z,997.79
2019-02-11T01:06:33.426Z,997.80
2019-02-11T01:07:33.453Z,997.94
2019-02-11T01:08:33.402Z,997.96
2019-02-11T01:09:33.392Z,997.94
2019-02-11T01:10:33.378Z,997.88
2019-02-11T01:11:33.371Z,997.95
2019-02-11T01:12:33.416Z,997.99
2019-02-11T01:13:33.353Z,997.99
2019-02-11T01:14:33.340Z,998.06
2019-02-11T01:15:33.326Z,998.01
2019-02-11T01:16:33.316Z,998.13
2019-02-11T01:17:33.304Z,998.06
2019-02-11T01:18:33.338Z,998.13
2019-02-11T01:19:33.282Z,998.11
2019-02-11T01:20:33.283Z,998.20
2019-02-11T01:21:33.264Z,998.15
2019-02-11T01:22:33.251Z,998.20
2019-02-11T01:23:33.285Z,998.18
2019-02-11T01:24:33.233Z,998.26
2019-02-11T01:25:33.221Z,998.27
2019-02-11T01:26:33.210Z,998.31
2019-02-11T01:27:33.199Z,998.25
2019-02-11T01:28:33.241Z,998.32
2019-02-11T01:29:33.177Z,998.36
2019-02-11T01:30:33.167Z,998.41
2019-02-11T01:31:33.155Z,998.50
2019-02-11T01:32:33.147Z,998.45
2019-02-11T01:33:33.179Z,998.46
2019-02-11T01:34:33.147Z,998.55
2019-02-11T01:35:33.113Z,998.53
2019-02-11T01:36:33.104Z,998.53
2019-02-11T01:37:33.094Z,998.61
2019-02-11T01:38:33.125Z,998.59
2019-02-11T01:39:33.070Z,998.59
2019-02-11T01:40:33.062Z,998.64
2019-02-11T01:41:33.048Z,998.70
2019-02-11T01:42:33.038Z,998.62
2019-02-11T01:43:36.118Z,998.60
2019-02-11T01:44:33.019Z,998.70
2019-02-11T01:45:33.007Z,998.69
2019-02-11T01:46:33.007Z,998.73
2019-02-11T01:47:32.985Z,998.68
2019-02-11T01:48:33.021Z,998.74
2019-02-11T01:49:32.969Z,998.78
2019-02-11T01:50:32.956Z,998.85
2019-02-11T01:51:32.950Z,998.85
2019-02-11T01:52:32.938Z,998.88
2019-02-11T01:53:32.964Z,998.83
2019-02-11T01:54:32.910Z,998.92
2019-02-11T01:55:32.900Z,998.91
2019-02-11T01:56:32.890Z,998.96
2019-02-11T01:57:32.879Z,999.00
2019-02-11T01:58:32.928Z,998.99
2019-02-11T01:59:32.857Z,998.98
2019-02-11T02:00:32.846Z,999.02
2019-02-11T02:01:32.838Z,999.01
2019-02-11T02:02:32.825Z,999.04
2019-02-11T02:03:32.863Z,999.02
2019-02-11T02:04:32.808Z,999.01
2019-02-11T02:05:32.799Z,999.08
2019-02-11T02:06:32.786Z,999.11
2019-02-11T02:07:32.772Z,999.13
2019-02-11T02:08:32.805Z,999.15
2019-02-11T02:09:32.759Z,999.17
2019-02-11T02:10:32.747Z,999.22
2019-02-11T02:11:32.731Z,999.18
2019-02-11T02:12:32.718Z,999.18
2019-02-11T02:13:32.751Z,999.21
2019-02-11T02:14:32.701Z,999.27
2019-02-11T02:15:32.685Z,999.34
2019-02-11T02:16:32.675Z,999.27
2019-02-11T02:17:32.678Z,999.31
2019-02-11T02:18:35.725Z,999.30
2019-02-11T02:19:32.644Z,999.32
2019-02-11T02:20:32.645Z,999.30
2019-02-11T02:21:32.624Z,999.34
2019-02-11T02:22:32.618Z,999.42
2019-02-11T02:23:32.648Z,999.39
2019-02-11T02:24:32.596Z,999.43
2019-02-11T02:25:32.578Z,999.43
2019-02-11T02:26:32.570Z,999.48
2019-02-11T02:27:32.562Z,999.50
2019-02-11T02:28:32.590Z,999.48
2019-02-11T02:29:32.547Z,999.46
2019-02-11T02:30:32.537Z,999.50
2019-02-11T02:31:32.513Z,999.49
2019-02-11T02:32:32.509Z,999.52
2019-02-11T02:33:32.536Z,999.54
2019-02-11T02:34:32.483Z,999.54
2019-02-11T02:35:32.480Z,999.47
2019-02-11T02:36:32.461Z,999.53
2019-02-11T02:37:32.451Z,999.66
2019-02-11T02:38:32.490Z,999.62
2019-02-11T02:39:32.431Z,999.56
2019-02-11T02:40:32.419Z,999.65
2019-02-11T02:41:32.418Z,999.66
2019-02-11T02:42:32.396Z,999.73
2019-02-11T02:43:32.430Z,999.68
2019-02-11T02:44:32.383Z,999.70
2019-02-11T02:45:32.369Z,999.70
2019-02-11T02:46:32.352Z,999.73
2019-02-11T02:47:32.355Z,999.78
2019-02-11T02:48:32.376Z,999.77
2019-02-11T02:49:32.327Z,999.87
2019-02-11T02:50:32.311Z,999.82
2019-02-11T02:51:32.303Z,999.85
2019-02-11T02:52:32.290Z,999.86
2019-02-11T02:53:32.325Z,999.84
2019-02-11T02:54:32.275Z,999.85
2019-02-11T02:55:32.258Z,999.89
2019-02-11T02:56:32.248Z,999.88
2019-02-11T02:57:32.235Z,999.90
2019-02-11T02:58:32.277Z,999.93
2019-02-11T02:59:32.227Z,999.89
2019-02-11T03:00:32.208Z,999.89
2019-02-11T03:01:32.195Z,999.99
2019-02-11T03:02:32.183Z,999.92
2019-02-11T03:03:32.224Z,1000.09
2019-02-11T03:04:32.161Z,1000.03
2019-02-11T03:05:32.166Z,1000.03
2019-02-11T03:06:32.139Z,1000.01
2019-02-11T03:07:32.128Z,1000.07
2019-02-11T03:08:32.118Z,1000.11
2019-02-11T03:09:32.155Z,1000.10
2019-02-11T03:10:32.097Z,1000.10
2019-02-11T03:11:32.089Z,1000.17
2019-02-11T03:12:32.075Z,1000.20
2019-02-11T03:13:32.061Z,1000.19
2019-02-11T03:14:32.093Z,1000.29
2019-02-11T03:15:32.042Z,1000.25
2019-02-11T03:16:32.032Z,1000.32
2019-02-11T03:17:32.033Z,1000.33
2019-02-11T03:18:32.010Z,1000.35
2019-02-11T03:19:32.043Z,1000.28
2019-02-11T03:20:31.987Z,1000.31
2019-02-11T03:21:31.975Z,1000.34
2019-02-11T03:22:31.966Z,1000.34
2019-02-11T03:23:31.956Z,1000.35
2019-02-11T03:24:31.993Z,1000.36
2019-02-11T03:25:31.932Z,1000.27
2019-02-11T03:26:31.921Z,1000.35
2019-02-11T03:27:31.911Z,1000.33
2019-02-11T03:28:31.901Z,1000.36
2019-02-11T03:29:31.932Z,1000.37
2019-02-11T03:30:31.902Z,1000.46
2019-02-11T03:31:31.868Z,1000.43
2019-02-11T03:32:31.878Z,1000.49
2019-02-11T03:33:31.847Z,1000.54
2019-02-11T03:34:31.881Z,1000.46
2019-02-11T03:35:31.827Z,1000.55
2019-02-11T03:36:31.815Z,1000.64
2019-02-11T03:37:31.804Z,1000.63
2019-02-11T03:38:31.797Z,1000.64
2019-02-11T03:39:31.823Z,1000.75
2019-02-11T03:40:31.772Z,1000.69
2019-02-11T03:41:31.759Z,1000.71
2019-02-11T03:42:31.754Z,1000.80
2019-02-11T03:43:31.739Z,1000.83
2019-02-11T03:44:31.776Z,1000.90
2019-02-11T03:45:31.720Z,1000.84
2019-02-11T03:46:31.706Z,1000.88
2019-02-11T03:47:31.701Z,1000.89
2019-02-11T03:48:31.684Z,1000.91
2019-02-11T03:49:31.715Z,1000.93
2019-02-11T03:50:31.666Z,1000.98
2019-02-11T03:51:31.661Z,1000.99
2019-02-11T03:52:31.641Z,1001.02
2019-02-11T03:53:31.632Z,1000.99
2019-02-11T03:54:31.662Z,1001.07
2019-02-11T03:55:31.608Z,1001.05
2019-02-11T03:56:31.603Z,1001.02
2019-02-11T03:57:31.595Z,1001.06
2019-02-11T03:58:31.581Z,1001.17
2019-02-11T03:59:31.613Z,1001.11
2019-02-11T04:00:31.554Z,1001.18
2019-02-11T04:01:31.544Z,1001.15
2019-02-11T04:02:31.540Z,1001.19
2019-02-11T04:03:31.524Z,1001.15
2019-02-11T04:04:31.560Z,1001.21
2019-02-11T04:05:31.501Z,1001.23
2019-02-11T04:06:31.493Z,1001.20
2019-02-11T04:07:31.480Z,1001.19
2019-02-11T04:08:31.473Z,1001.23
2019-02-11T04:09:31.500Z,1001.27
2019-02-11T04:10:31.449Z,1001.35
2019-02-11T04:11:31.437Z,1001.32
2019-02-11T04:12:31.429Z,1001.45
2019-02-11T04:13:31.414Z,1001.44
2019-02-11T04:14:31.450Z,1001.49
2019-02-11T04:15:31.393Z,1001.48
2019-02-11T04:16:31.382Z,1001.53
2019-02-11T04:17:31.370Z,1001.56
2019-02-11T04:18:31.359Z,1001.54
2019-02-11T04:19:31.394Z,1001.61
2019-02-11T04:20:31.339Z,1001.58
2019-02-11T04:21:31.331Z,1001.58
2019-02-11T04:22:31.328Z,1001.67
2019-02-11T04:23:31.306Z,1001.63
2019-02-11T04:24:31.337Z,1001.64
2019-02-11T04:25:31.363Z,1001.62
2019-02-11T04:26:31.275Z,1001.63
2019-02-11T04:27:31.263Z,1001.70
2019-02-11T04:28:31.253Z,1001.67
2019-02-11T04:29:31.293Z,1001.77
2019-02-11T04:30:31.231Z,1001.75
2019-02-11T04:31:31.223Z,1001.79
2019-02-11T04:32:31.227Z,1001.78
2019-02-11T04:33:31.206Z,1001.86
2019-02-11T04:34:31.237Z,1001.83
2019-02-11T04:35:31.176Z,1001.84
2019-02-11T04:36:31.164Z,1001.87
2019-02-11T04:37:31.153Z,1001.89
2019-02-11T04:38:31.143Z,1001.91
2019-02-11T04:39:31.195Z,1001.95
2019-02-11T04:40:31.119Z,1001.96
2019-02-11T04:41:31.111Z,1001.96
2019-02-11T04:42:31.098Z,1002.01
2019-02-11T04:43:31.093Z,1001.96
2019-02-11T04:44:33.901Z,1002.03
2019-02-11T04:45:31.068Z,1002.04
2019-02-11T04:46:31.059Z,1002.06
2019-02-11T04:47:31.044Z,1002.17
2019-02-11T04:48:31.034Z,1002.21
2019-02-11T04:49:31.039Z,1002.22
2019-02-11T04:50:31.057Z,1002.19
2019-02-11T04:51:31.003Z,1002.23
2019-02-11T04:52:30.991Z,1002.19
2019-02-11T04:53:30.993Z,1002.26
2019-02-11T04:54:30.970Z,1002.26
2019-02-11T04:55:31.011Z,1002.23
2019-02-11T04:56:30.947Z,1002.25
2019-02-11T04:57:30.937Z,1002.34
2019-02-11T04:58:30.928Z,1002.31
2019-02-11T04:59:30.924Z,1002.41
2019-02-11T05:00:30.949Z,1002.35
2019-02-11T05:01:30.894Z,1002.35
2019-02-11T05:02:30.896Z,1002.42
2019-02-11T05:03:30.875Z,1002.41
2019-02-11T05:04:30.861Z,1002.44
2019-02-11T05:05:30.894Z,1002.47
2019-02-11T05:06:30.843Z,1002.53
2019-02-11T05:07:30.837Z,1002.52
2019-02-11T05:08:30.818Z,1002.52
2019-02-11T05:09:30.806Z,1002.48
2019-02-11T05:10:30.841Z,1002.50
2019-02-11T05:11:30.791Z,1002.56
2019-02-11T05:12:30.782Z,1002.52
2019-02-11T05:13:30.774Z,1002.60
2019-02-11T05:14:30.752Z,1002.66
2019-02-11T05:15:30.787Z,1002.67
2019-02-11T05:16:30.734Z,1002.67
2019-02-11T05:17:30.719Z,1002.71
2019-02-11T05:18:30.710Z,1002.76
2019-02-11T05:19:30.743Z,1002.75
2019-02-11T05:20:30.734Z,1002.83
2019-02-11T05:21:30.678Z,1002.75
2019-02-11T05:22:30.666Z,1002.80
2019-02-11T05:23:30.657Z,1002.80
2019-02-11T05:24:30.647Z,1002.80
2019-02-11T05:25:30.702Z,1002.81
2019-02-11T05:26:30.624Z,1002.79
2019-02-11T05:27:30.614Z,1002.85
2019-02-11T05:28:30.600Z,1002.80
2019-02-11T05:29:30.604Z,1002.83
2019-02-11T05:30:30.623Z,1002.88
2019-02-11T05:31:32.629Z,1002.89
2019-02-11T05:32:30.570Z,1002.84
2019-02-11T05:33:30.547Z,1002.84
2019-02-11T05:34:30.549Z,1002.77
2019-02-11T05:35:30.569Z,1002.91
2019-02-11T05:36:30.522Z,1002.94
2019-02-11T05:37:30.506Z,1002.97
2019-02-11T05:38:30.497Z,1002.95
2019-02-11T05:39:30.483Z,1002.97
2019-02-11T05:40:30.543Z,1002.99
2019-02-11T05:41:30.466Z,1002.99
2019-02-11T05:42:30.451Z,1003.05
2019-02-11T05:43:30.449Z,1003.04
2019-02-11T05:44:30.435Z,1003.05
2019-02-11T05:45:30.421Z,1003.08
2019-02-11T05:46:30.457Z,1003.09
2019-02-11T05:47:30.403Z,1003.14
2019-02-11T05:48:30.388Z,1003.09
2019-02-11T05:49:30.380Z,1003.16
2019-02-11T05:50:30.374Z,1003.19
2019-02-11T05:51:30.398Z,1003.14
2019-02-11T05:52:30.347Z,1003.24
2019-02-11T05:53:30.354Z,1003.22
2019-02-11T05:54:30.326Z,1003.34
2019-02-11T05:55:30.314Z,1003.34
2019-02-11T05:56:30.348Z,1003.33
2019-02-11T05:57:30.293Z,1003.32
2019-02-11T05:58:30.282Z,1003.31
2019-02-11T05:59:30.275Z,1003.32
2019-02-11T06:00:30.261Z,1003.33
2019-02-11T06:01:30.302Z,1003.30
2019-02-11T06:02:30.237Z,1003.35
2019-02-11T06:03:30.230Z,1003.36
2019-02-11T06:04:30.218Z,1003.41
2019-02-11T06:05:30.232Z,1003.45
2019-02-11T06:06:30.237Z,1003.53
2019-02-11T06:07:30.184Z,1003.55
2019-02-11T06:08:30.187Z,1003.58
2019-02-11T06:09:30.169Z,1003.60
2019-02-11T06:10:30.157Z,1003.66
2019-02-11T06:11:30.212Z,1003.69
2019-02-11T06:12:30.137Z,1003.68
2019-02-11T06:13:30.206Z,1003.69
2019-02-11T06:14:30.152Z,1003.64
2019-02-11T06:15:30.172Z,1003.67
2019-02-11T06:16:30.215Z,1003.77
2019-02-11T06:17:30.076Z,1003.78
2019-02-11T06:18:30.066Z,1003.79
2019-02-11T06:19:30.659Z,1003.82
2019-02-11T06:20:30.048Z,1003.80
2019-02-11T06:21:30.093Z,1003.85
2019-02-11T06:22:30.028Z,1003.88
2019-02-11T06:23:30.013Z,1003.93
2019-02-11T06:24:30.003Z,1003.92
2019-02-11T06:25:29.989Z,1003.97
2019-02-11T06:26:30.025Z,1003.95
2019-02-11T06:27:29.974Z,1004.00
2019-02-11T06:28:29.958Z,1003.96
2019-02-11T06:29:29.950Z,1003.99
2019-02-11T06:30:29.941Z,1004.05
2019-02-11T06:31:29.969Z,1004.05
2019-02-11T06:32:29.916Z,1004.01
2019-02-11T06:33:29.917Z,1004.16
2019-02-11T06:34:29.895Z,1004.25
2019-02-11T06:35:29.886Z,1004.21
2019-02-11T06:36:29.916Z,1004.22
2019-02-11T06:37:29.864Z,1004.24
2019-02-11T06:38:29.858Z,1004.24
2019-02-11T06:39:29.848Z,1004.32
2019-02-11T06:40:29.838Z,1004.35
2019-02-11T06:41:29.866Z,1004.42
2019-02-11T06:42:29.819Z,1004.32
2019-02-11T06:43:29.799Z,1004.42
2019-02-11T06:44:29.791Z,1004.44
2019-02-11T06:45:29.851Z,1004.44
2019-02-11T06:46:29.822Z,1004.51
2019-02-11T06:47:29.771Z,1004.49
2019-02-11T06:48:29.759Z,1004.54
2019-02-11T06:49:29.747Z,1004.63
2019-02-11T06:50:29.736Z,1004.67
2019-02-11T06:51:29.787Z,1004.63
2019-02-11T06:52:29.705Z,1004.66
2019-02-11T06:53:29.698Z,1004.71
2019-02-11T06:54:29.685Z,1004.80
2019-02-11T06:55:29.674Z,1004.78
2019-02-11T06:56:29.665Z,1004.77
2019-02-11T06:57:29.693Z,1004.91
2019-02-11T06:58:29.692Z,1004.92
2019-02-11T06:59:29.629Z,1004.97
2019-02-11T07:00:29.619Z,1004.96
2019-02-11T07:01:29.608Z,1004.99
2019-02-11T07:02:29.641Z,1005.08
2019-02-11T07:03:29.588Z,1005.01
2019-02-11T07:04:29.599Z,1005.12
2019-02-11T07:05:29.572Z,1005.14
2019-02-11T07:06:29.557Z,1005.15
2019-02-11T07:07:29.601Z,1005.19
2019-02-11T07:08:29.534Z,1005.23
2019-02-11T07:09:29.523Z,1005.22
2019-02-11T07:10:29.513Z,1005.23
2019-02-11T07:11:29.581Z,1005.18
2019-02-11T07:12:29.559Z,1005.23
2019-02-11T07:13:29.480Z,1005.22
2019-02-11T07:14:29.481Z,1005.21
2019-02-11T07:15:29.461Z,1005.25
2019-02-11T07:16:29.448Z,1005.24
2019-02-11T07:17:29.494Z,1005.26
2019-02-11T07:18:29.429Z,1005.32
2019-02-11T07:19:29.416Z,1005.33
2019-02-11T07:20:29.409Z,1005.40
2019-02-11T07:21:29.396Z,1005.40
2019-02-11T07:22:29.457Z,1005.44
2019-02-11T07:23:29.376Z,1005.48
2019-02-11T07:24:29.364Z,1005.52
2019-02-11T07:25:29.354Z,1005.52
2019-02-11T07:26:29.342Z,1005.46
2019-02-11T07:27:29.376Z,1005.50
2019-02-11T07:28:29.320Z,1005.51
2019-02-11T07:29:29.317Z,1005.48
2019-02-11T07:30:29.302Z,1005.55
2019-02-11T07:31:29.289Z,1005.55
2019-02-11T07:32:29.325Z,1005.56
2019-02-11T07:33:29.270Z,1005.61
2019-02-11T07:34:29.261Z,1005.68
2019-02-11T07:35:29.250Z,1005.69
2019-02-11T07:36:29.241Z,1005.70
2019-02-11T07:37:29.271Z,1005.63
2019-02-11T07:38:29.251Z,1005.60
2019-02-11T07:39:29.207Z,1005.69
2019-02-11T07:40:29.194Z,1005.78
2019-02-11T07:41:29.183Z,1005.75
2019-02-11T07:42:29.217Z,1005.84
2019-02-11T07:43:29.167Z,1005.86
2019-02-11T07:44:29.170Z,1005.94
2019-02-11T07:45:30.328Z,1005.92
2019-02-11T07:46:29.139Z,1005.93
2019-02-11T07:47:29.162Z,1005.95
2019-02-11T07:48:29.633Z,1005.96
2019-02-11T07:49:29.100Z,1006.07
2019-02-11T07:50:29.090Z,1006.06
2019-02-11T07:51:29.077Z,1006.01
2019-02-11T07:52:29.130Z,1006.14
2019-02-11T07:53:29.054Z,1006.16
2019-02-11T07:54:29.045Z,1006.07
2019-02-11T07:55:29.042Z,1006.09
2019-02-11T07:56:29.022Z,1006.15
2019-02-11T07:57:29.059Z,1006.19
2019-02-11T07:58:29.002Z,1006.13
2019-02-11T07:59:28.992Z,1006.22
2019-02-11T08:00:28.989Z,1006.24
2019-02-11T08:01:28.981Z,1006.22
2019-02-11T08:02:29.002Z,1006.20
2019-02-11T08:03:28.950Z,1006.24
2019-02-11T08:04:28.939Z,1006.25
2019-02-11T08:05:28.926Z,1006.26
2019-02-11T08:06:28.915Z,1006.25
2019-02-11T08:07:28.963Z,1006.26
2019-02-11T08:08:28.896Z,1006.23
2019-02-11T08:09:28.883Z,1006.25
2019-02-11T08:10:28.872Z,1006.33
2019-02-11T08:11:28.864Z,1006.26
2019-02-11T08:12:28.894Z,1006.39
2019-02-11T08:13:28.849Z,1006.35
2019-02-11T08:14:28.833Z,1006.30
2019-02-11T08:15:28.819Z,1006.35
2019-02-11T08:16:28.833Z,1006.33
2019-02-11T08:17:28.852Z,1006.32
2019-02-11T08:18:28.791Z,1006.37
2019-02-11T08:19:28.777Z,1006.31
2019-02-11T08:20:28.769Z,1006.45
2019-02-11T08:21:28.759Z,1006.45
2019-02-11T08:22:28.743Z,1006.46
2019-02-11T08:23:28.787Z,1006.45
2019-02-11T08:24:28.730Z,1006.49
2019-02-11T08:25:28.712Z,1006.49
2019-02-11T08:26:28.699Z,1006.55
2019-02-11T08:27:28.699Z,1006.67
2019-02-11T08:28:28.721Z,1006.62
2019-02-11T08:29:28.681Z,1006.66
2019-02-11T08:30:28.654Z,1006.70
2019-02-11T08:31:28.644Z,1006.76
2019-02-11T08:32:28.635Z,1006.77
2019-02-11T08:33:30.455Z,1006.74
2019-02-11T08:34:28.620Z,1006.75
2019-02-11T08:35:29.030Z,1006.74
2019-02-11T08:36:28.600Z,1006.82
2019-02-11T08:37:28.584Z,1006.85
2019-02-11T08:38:28.616Z,1006.81
2019-02-11T08:39:28.558Z,1006.88
2019-02-11T08:40:28.555Z,1006.82
2019-02-11T08:41:28.549Z,1006.94
2019-02-11T08:42:28.535Z,1006.99
2019-02-11T08:43:28.569Z,1006.96
2019-02-11T08:44:28.505Z,1006.99
2019-02-11T08:45:28.495Z,1006.98
2019-02-11T08:46:28.482Z,1007.12
2019-02-11T08:47:28.478Z,1007.10
2019-02-11T08:48:28.502Z,1007.11
2019-02-11T08:49:30.072Z,1007.11
2019-02-11T08:50:28.447Z,1007.22
2019-02-11T08:51:28.426Z,1007.10
2019-02-11T08:52:28.434Z,1007.19
2019-02-11T08:53:28.450Z,1007.16
2019-02-11T08:54:28.399Z,1007.17
2019-02-11T08:55:28.384Z,1007.21
2019-02-11T08:56:28.373Z,1007.21
2019-02-11T08:57:28.380Z,1007.20
2019-02-11T08:58:28.397Z,1007.24
2019-02-11T08:59:28.340Z,1007.22
2019-02-11T09:00:28.338Z,1007.31
2019-02-11T09:01:28.323Z,1007.21
2019-02-11T09:02:28.310Z,1007.27
2019-02-11T09:03:28.341Z,1007.28
2019-02-11T09:04:28.292Z,1007.38
2019-02-11T09:05:28.277Z,1007.39
2019-02-11T09:06:28.270Z,1007.35
2019-02-11T09:07:28.253Z,1007.44
2019-02-11T09:08:28.308Z,1007.45
2019-02-11T09:09:28.233Z,1007.49
2019-02-11T09:10:28.226Z,1007.43
2019-02-11T09:11:28.209Z,1007.49
2019-02-11T09:12:28.201Z,1007.53
2019-02-11T09:13:28.230Z,1007.56
2019-02-11T09:14:28.179Z,1007.51
2019-02-11T09:15:28.171Z,1007.57
2019-02-11T09:16:28.251Z,1007.52
2019-02-11T09:17:28.146Z,1007.62
2019-02-11T09:18:28.213Z,1007.58
2019-02-11T09:19:28.145Z,1007.61
2019-02-11T09:20:28.112Z,1007.66
2019-02-11T09:21:28.109Z,1007.64
2019-02-11T09:22:28.090Z,1007.70
2019-02-11T09:23:28.121Z,1007.70
2019-02-11T09:24:28.068Z,1007.67
2019-02-11T09:25:28.059Z,1007.77
2019-02-11T09:26:28.050Z,1007.78
2019-02-11T09:27:28.036Z,1007.84
2019-02-11T09:28:28.067Z,1007.77
2019-02-11T09:29:28.015Z,1007.89
2019-02-11T09:30:28.002Z,1007.90
2019-02-11T09:31:27.995Z,1007.94
2019-02-11T09:32:27.997Z,1007.89
2019-02-11T09:33:28.017Z,1007.91
2019-02-11T09:34:27.981Z,1007.99
2019-02-11T09:35:27.947Z,1008.00
2019-02-11T09:36:27.939Z,1008.07
2019-02-11T09:37:27.940Z,1008.05
2019-02-11T09:38:27.959Z,1008.17
2019-02-11T09:39:27.922Z,1008.12
2019-02-11T09:40:27.896Z,1008.11
2019-02-11T09:41:27.888Z,1008.16
2019-02-11T09:42:27.873Z,1008.10
2019-02-11T09:43:27.916Z,1008.16
2019-02-11T09:44:29.712Z,1008.19
2019-02-11T09:45:27.841Z,1008.25
2019-02-11T09:46:27.841Z,1008.28
2019-02-11T09:47:27.817Z,1008.29
2019-02-11T09:48:27.853Z,1008.32
2019-02-11T09:49:27.796Z,1008.28
2019-02-11T09:50:27.786Z,1008.32
2019-02-11T09:51:27.773Z,1008.37
2019-02-11T09:52:27.767Z,1008.41
2019-02-11T09:53:27.793Z,1008.42
2019-02-11T09:54:27.751Z,1008.46
2019-02-11T09:55:27.730Z,1008.48
2019-02-11T09:56:27.722Z,1008.55
2019-02-11T09:57:27.711Z,1008.55
2019-02-11T09:58:27.816Z,1008.57
2019-02-11T09:59:27.688Z,1008.61
2019-02-11T10:00:27.679Z,1008.58
2019-02-11T10:01:27.666Z,1008.66
2019-02-11T10:02:27.654Z,1008.66
2019-02-11T10:03:27.643Z,1008.66
2019-02-11T10:04:27.678Z,1008.72
2019-02-11T10:05:27.625Z,1008.73
2019-02-11T10:06:27.611Z,1008.80
2019-02-11T10:07:27.598Z,1008.72
2019-02-11T10:08:27.604Z,1008.67
2019-02-11T10:09:27.653Z,1008.78
2019-02-11T10:10:27.564Z,1008.84
2019-02-11T10:11:27.580Z,1008.85
2019-02-11T10:12:27.555Z,1008.90
2019-02-11T10:13:27.533Z,1008.90
2019-02-11T10:14:27.575Z,1008.89
2019-02-11T10:15:27.514Z,1008.90
2019-02-11T10:16:27.538Z,1008.89
2019-02-11T10:17:29.785Z,1008.97
2019-02-11T10:18:27.499Z,1009.12
2019-02-11T10:19:27.509Z,1009.11
2019-02-11T10:20:27.457Z,1009.09
2019-02-11T10:21:27.457Z,1009.10
2019-02-11T10:22:27.435Z,1009.11
2019-02-11T10:23:27.426Z,1009.15
2019-02-11T10:24:27.460Z,1009.16
2019-02-11T10:25:27.416Z,1009.24
2019-02-11T10:26:27.389Z,1009.20
2019-02-11T10:27:27.377Z,1009.20
2019-02-11T10:28:27.388Z,1009.29
2019-02-11T10:29:27.401Z,1009.23
2019-02-11T10:30:27.346Z,1009.36
2019-02-11T10:31:27.339Z,1009.29
2019-02-11T10:32:27.325Z,1009.27
2019-02-11T10:33:27.313Z,1009.32
2019-02-11T10:34:27.352Z,1009.32
2019-02-11T10:35:27.290Z,1009.32
2019-02-11T10:36:27.280Z,1009.49
2019-02-11T10:37:27.268Z,1009.37
2019-02-11T10:38:27.678Z,1009.41
2019-02-11T10:39:27.304Z,1009.41
2019-02-11T10:40:27.240Z,1009.41
2019-02-11T10:41:27.225Z,1009.45
2019-02-11T10:42:27.225Z,1009.49
2019-02-11T10:43:27.211Z,1009.48
2019-02-11T10:44:27.235Z,1009.56
2019-02-11T10:45:27.205Z,1009.63
2019-02-11T10:46:27.172Z,1009.55
2019-02-11T10:47:27.179Z,1009.70
2019-02-11T10:48:27.152Z,1009.69
2019-02-11T10:49:27.190Z,1009.60
2019-02-11T10:50:27.130Z,1009.71
2019-02-11T10:51:27.114Z,1009.70
2019-02-11T10:52:27.128Z,1009.77
2019-02-11T10:53:27.092Z,1009.78
2019-02-11T10:54:27.125Z,1009.79
2019-02-11T10:55:27.070Z,1009.78
2019-02-11T10:56:27.062Z,1009.82
2019-02-11T10:57:27.049Z,1009.82
2019-02-11T10:58:27.038Z,1009.80
2019-02-11T10:59:27.070Z,1009.84
2019-02-11T11:00:27.014Z,1009.83
2019-02-11T11:01:27.018Z,1009.85
2019-02-11T11:02:27.014Z,1009.83
2019-02-11T11:03:26.982Z,1009.85
2019-02-11T11:04:27.023Z,1009.84
2019-02-11T11:05:26.959Z,1009.88
2019-02-11T11:06:26.948Z,1009.81
2019-02-11T11:07:26.939Z,1009.77
2019-02-11T11:08:26.929Z,1009.84
2019-02-11T11:09:26.958Z,1009.83
2019-02-11T11:10:26.906Z,1009.91
2019-02-11T11:11:26.895Z,1009.86
2019-02-11T11:12:26.881Z,1009.96
2019-02-11T11:13:26.873Z,1009.99
2019-02-11T11:14:26.908Z,1010.32
2019-02-11T11:15:26.850Z,1010.04
2019-02-11T11:16:29.754Z,1010.00
2019-02-11T11:17:26.827Z,1010.37
2019-02-11T11:18:26.815Z,1010.49
2019-02-11T11:19:26.861Z,1010.44
2019-02-11T11:20:26.842Z,1010.53
2019-02-11T11:21:26.796Z,1010.50
2019-02-11T11:22:26.775Z,1010.22
2019-02-11T11:23:26.761Z,1010.08
2019-02-11T11:24:26.753Z,1010.06
2019-02-11T11:25:26.784Z,1010.19
2019-02-11T11:26:26.729Z,1010.22
2019-02-11T11:27:26.727Z,1010.32
2019-02-11T11:28:26.709Z,1010.26
2019-02-11T11:29:26.698Z,1010.40
2019-02-11T11:30:26.742Z,1010.37
2019-02-11T11:31:26.700Z,1010.39
2019-02-11T11:32:26.663Z,1010.46
2019-02-11T11:33:26.656Z,1010.53
2019-02-11T11:34:26.640Z,1010.52
2019-02-11T11:35:26.674Z,1010.52
2019-02-11T11:36:26.623Z,1010.32
2019-02-11T11:37:26.608Z,1010.26
2019-02-11T11:38:26.598Z,1010.60
2019-02-11T11:39:26.604Z,1010.45
2019-02-11T11:40:26.620Z,1010.58
2019-02-11T11:41:26.568Z,1010.47
2019-02-11T11:42:26.569Z,1010.37
2019-02-11T11:43:26.543Z,1010.34
2019-02-11T11:44:26.534Z,1010.36
2019-02-11T11:45:27.890Z,1010.33
2019-02-11T11:46:26.510Z,1010.73
2019-02-11T11:47:26.503Z,1010.50
2019-02-11T11:48:26.607Z,1010.74
2019-02-11T11:49:26.485Z,1010.52
2019-02-11T11:50:26.521Z,1010.81
2019-02-11T11:51:26.470Z,1010.53
2019-02-11T11:52:26.448Z,1010.45
2019-02-11T11:53:26.436Z,1010.44
2019-02-11T11:54:26.437Z,1010.49
2019-02-11T11:55:26.486Z,1010.51
2019-02-11T11:56:26.410Z,1010.54
2019-02-11T11:57:26.420Z,1010.60
2019-02-11T11:58:27.143Z,1010.63
2019-02-11T11:59:26.377Z,1010.61
2019-02-11T12:00:26.424Z,1010.64
2019-02-11T12:01:26.355Z,1010.68
2019-02-11T12:02:26.348Z,1010.65
2019-02-11T12:03:26.356Z,1010.73
2019-02-11T12:04:26.320Z,1010.81
2019-02-11T12:05:26.376Z,1011.08
2019-02-11T12:06:26.325Z,1011.38
2019-02-11T12:07:26.289Z,1011.46
2019-02-11T12:08:26.301Z,1011.47
2019-02-11T12:09:26.271Z,1011.50
2019-02-11T12:10:26.405Z,1011.46
2019-02-11T12:11:26.255Z,1011.35